Time;durP1;ratioP1;P1;durP2;ratioP2;P2;SDS_P1;SDS_P2;PMS_P1;PMS_P2;Temp;Humidity;BMP_temperature;BMP_pressure;BME280_temperature;BME280_humidity;BME280_pressure;Samples;Min_cycle;Max_cycle;Signal;HPM_P1;HPM_P2
2023/06/22 00:00:08;;;;;;;11.90;8.10;;;;;;;;;;106073;1288;22538;-84
2023/06/22 00:03:01;;;;;;;12.50;8.30;;;;;;;;;;104079;1285;3096986;-80
2023/06/22 00:05:28;;;;;;;11.60;7.30;;;;;;;;;;106921;1276;22534;-86
2023/06/22 00:07:55;;;;;;;10.90;7.90;;;;;;;;;;106944;1276;22757;-85
2023/06/22 00:10:22;;;;;;;13.10;8.00;;;;;;;;;;106912;1258;22523;-84
2023/06/22 00:12:49;;;;;;;13.00;8.70;;;;;;;;;;106918;1276;23124;-79
2023/06/22 00:15:16;;;;;;;13.50;8.30;;;;;;;;;;106930;1276;25377;-83
2023/06/22 00:17:42;;;;;;;12.80;7.90;;;;;;;;;;106955;1271;25347;-81
2023/06/22 00:20:10;;;;;;;13.40;8.60;;;;;;;;;;106931;1259;22582;-82
2023/06/22 00:22:38;;;;;;;13.20;8.60;;;;;;;;;;106940;1276;22535;-81
2023/06/22 00:25:08;;;;;;;12.40;8.10;;;;;;;;;;106937;1276;25374;-82
2023/06/22 00:27:38;;;;;;;13.20;8.50;;;;;;;;;;106933;1276;22532;-79
2023/06/22 00:30:07;;;;;;;14.70;8.90;;;;;;;;;;106906;1254;22537;-86
2023/06/22 00:32:34;;;;;;;12.40;8.60;;;;;;;;;;106915;1276;22545;-84
2023/06/22 00:35:10;;;;;;;14.50;8.80;;;;;;;;;;107215;1274;22528;-80
2023/06/22 00:37:38;;;;;;;13.90;8.70;;;;;;;;;;107091;1274;22520;-86
2023/06/22 00:40:05;;;;;;;14.40;7.90;;;;;;;;;;107013;1251;25337;-84
2023/06/22 00:42:31;;;;;;;14.20;7.90;;;;;;;;;;107114;1274;22527;-82
2023/06/22 00:44:58;;;;;;;14.40;7.80;;;;;;;;;;106956;1275;22531;-80
2023/06/22 00:47:27;;;;;;;12.50;8.10;;;;;;;;;;106943;1275;22524;-85
2023/06/22 00:49:54;;;;;;;14.00;8.70;;;;;;;;;;106938;1275;24330;-82
2023/06/22 00:52:26;;;;;;;14.10;8.60;;;;;;;;;;106991;1275;25278;-80
2023/06/22 00:54:53;;;;;;;12.60;8.30;;;;;;;;;;107125;1275;24869;-84
2023/06/22 00:57:21;;;;;;;12.90;8.40;;;;;;;;;;106938;1275;24350;-84
2023/06/22 00:59:50;;;;;;;12.90;8.70;;;;;;;;;;107091;1275;22583;-84
2023/06/22 01:02:17;;;;;;;15.00;8.70;;;;;;;;;;107001;1260;25316;-85
2023/06/22 01:04:44;;;;;;;12.20;8.40;;;;;;;;;;107082;1275;25271;-80
2023/06/22 01:07:30;;;;;;;15.90;9.10;;;;;;;;;;107027;1275;24231;-82
2023/06/22 01:10:20;;;;;;;;;;;;;;;;;;;;;
2023/06/22 01:12:52;;;;;;;13.80;9.30;;;;;;;;;;107117;1256;24222;-82
2023/06/22 01:15:28;;;;;;;15.00;9.70;;;;;;;;;;107084;1275;22521;-80
2023/06/22 01:17:56;;;;;;;17.40;9.90;;;;;;;;;;107172;1275;22527;-85
2023/06/22 01:20:23;;;;;;;16.40;10.10;;;;;;;;;;107088;1275;25353;-84
2023/06/22 01:23:06;;;;;;;14.40;10.30;;;;;;;;;;106963;1270;22505;-81
2023/06/22 01:25:53;;;;;;;16.70;9.00;;;;;;;;;;107058;1275;24214;-84
2023/06/22 01:28:22;;;;;;;16.60;9.40;;;;;;;;;;107094;1275;22523;-83
2023/06/22 01:30:49;;;;;;;14.80;9.20;;;;;;;;;;107051;1275;25455;-80
2023/06/22 01:33:18;;;;;;;14.60;8.70;;;;;;;;;;106949;1275;22527;-84
2023/06/22 01:35:45;;;;;;;14.90;8.50;;;;;;;;;;107036;1275;25282;-82
2023/06/22 01:38:13;;;;;;;14.60;8.70;;;;;;;;;;107057;1275;24222;-84
2023/06/22 01:40:42;;;;;;;13.70;9.00;;;;;;;;;;106965;1275;22530;-80
2023/06/22 01:43:09;;;;;;;14.10;8.90;;;;;;;;;;107074;1252;22520;-83
2023/06/22 01:45:45;;;;;;;15.20;9.30;;;;;;;;;;106935;1276;22548;-87
2023/06/22 01:48:13;;;;;;;16.00;9.90;;;;;;;;;;106938;1276;22502;-81
2023/06/22 01:50:40;;;;;;;15.50;9.20;;;;;;;;;;106918;1276;22533;-81
2023/06/22 01:53:07;;;;;;;16.40;9.70;;;;;;;;;;106957;1276;25236;-80
2023/06/22 01:55:47;;;;;;;13.60;8.90;;;;;;;;;;106964;1276;24349;-87
2023/06/22 01:58:15;;;;;;;13.20;8.90;;;;;;;;;;106989;1276;25537;-87
2023/06/22 02:00:50;;;;;;;13.00;8.60;;;;;;;;;;107028;1276;22525;-84
2023/06/22 02:03:22;;;;;;;15.60;8.80;;;;;;;;;;106959;1259;22537;-85
2023/06/22 02:05:56;;;;;;;14.20;10.00;;;;;;;;;;106937;1276;22777;-82
2023/06/22 02:08:29;;;;;;;15.90;10.00;;;;;;;;;;106955;1276;24195;-81
2023/06/22 02:11:00;;;;;;;14.80;9.90;;;;;;;;;;106974;1276;22531;-81
2023/06/22 02:13:27;;;;;;;18.70;10.10;;;;;;;;;;106998;1257;24205;-87
2023/06/22 02:16:00;;;;;;;14.70;9.70;;;;;;;;;;106906;1273;22671;-82
2023/06/22 02:18:28;;;;;;;16.60;10.20;;;;;;;;;;106948;1276;22543;-87
2023/06/22 02:20:54;;;;;;;15.30;9.10;;;;;;;;;;106954;1276;24194;-82
2023/06/22 02:23:25;;;;;;;16.00;9.40;;;;;;;;;;106865;1262;24319;-84
2023/06/22 02:25:54;;;;;;;13.60;9.50;;;;;;;;;;106897;1276;22530;-81
2023/06/22 02:28:24;;;;;;;16.20;10.00;;;;;;;;;;106887;1276;24349;-87
2023/06/22 02:30:51;;;;;;;14.90;10.00;;;;;;;;;;106955;1276;22761;-82
2023/06/22 02:33:30;;;;;;;14.90;10.00;;;;;;;;;;106916;1260;25370;-81
2023/06/22 02:36:21;;;;;;;15.10;9.80;;;;;;;;;;107007;1276;25275;-87
2023/06/22 02:38:51;;;;;;;13.50;9.30;;;;;;;;;;106888;1276;23073;-81
2023/06/22 02:41:18;;;;;;;15.10;8.70;;;;;;;;;;106958;1276;25322;-82
2023/06/22 02:43:51;;;;;;;12.30;8.60;;;;;;;;;;106993;1276;22528;-87
2023/06/22 02:46:20;;;;;;;12.70;9.00;;;;;;;;;;106925;1276;22528;-81
2023/06/22 02:48:47;;;;;;;15.40;10.10;;;;;;;;;;106922;1276;23947;-87
2023/06/22 02:51:17;;;;;;;15.10;11.10;;;;;;;;;;106822;1276;22582;-85
2023/06/22 02:54:05;;;;;;;14.00;10.40;;;;;;;;;;106948;1259;22848;-86
2023/06/22 02:56:34;;;;;;;16.60;11.20;;;;;;;;;;106894;1276;22540;-81
2023/06/22 02:59:01;;;;;;;14.20;10.50;;;;;;;;;;106597;1276;22563;-81
2023/06/22 03:01:49;;;;;;;15.40;10.10;;;;;;;;;;106695;1276;22522;-81
2023/06/22 03:04:42;;;;;;;16.30;10.30;;;;;;;;;;106879;1260;22758;-84
2023/06/22 03:07:09;;;;;;;14.40;10.00;;;;;;;;;;106839;1276;22540;-81
2023/06/22 03:09:41;;;;;;;13.90;9.30;;;;;;;;;;106903;1276;22647;-82
2023/06/22 03:12:11;;;;;;;15.00;9.30;;;;;;;;;;106958;1269;22538;-84
2023/06/22 03:14:44;;;;;;;13.80;10.40;;;;;;;;;;106961;1259;22531;-81
2023/06/22 03:17:11;;;;;;;13.70;10.10;;;;;;;;;;107179;1276;23832;-82
2023/06/22 03:19:49;;;;;;;15.40;9.70;;;;;;;;;;106951;1276;22651;-80
2023/06/22 03:22:29;;;;;;;14.20;9.00;;;;;;;;;;107133;1275;24193;-81
2023/06/22 03:24:56;;;;;;;13.60;9.20;;;;;;;;;;106945;1260;22534;-86
2023/06/22 03:27:54;;;;;;;14.20;9.70;;;;;;;;;;106912;1276;22528;-82
2023/06/22 03:30:26;;;;;;;12.60;9.30;;;;;;;;;;106940;1276;21687;-87
2023/06/22 03:32:54;;;;;;;16.10;10.10;;;;;;;;;;106956;1275;22523;-79
2023/06/22 03:35:21;;;;;;;13.40;10.00;;;;;;;;;;107099;1270;24343;-81
2023/06/22 03:38:19;;;;;;;14.80;9.10;;;;;;;;;;106986;1276;22524;-85
2023/06/22 03:40:58;;;;;;;14.90;9.90;;;;;;;;;;106966;1276;22524;-86
2023/06/22 03:43:29;;;;;;;15.30;9.20;;;;;;;;;;106945;1275;22530;-80
2023/06/22 03:46:04;;;;;;;15.40;8.80;;;;;;;;;;106961;1259;22539;-82
2023/06/22 03:48:31;;;;;;;13.90;8.50;;;;;;;;;;106984;1275;22545;-82
2023/06/22 03:51:01;;;;;;;13.70;9.10;;;;;;;;;;106992;1275;22548;-82
2023/06/22 03:53:44;;;;;;;15.70;9.60;;;;;;;;;;107176;1275;24243;-87
2023/06/22 03:56:27;;;;;;;13.10;9.40;;;;;;;;;;106923;1259;22594;-83
2023/06/22 03:58:57;;;;;;;14.00;8.50;;;;;;;;;;107187;1276;22532;-85
2023/06/22 04:01:39;;;;;;;16.20;9.80;;;;;;;;;;106884;1276;25281;-84
2023/06/22 04:04:14;;;;;;;14.10;9.60;;;;;;;;;;106992;1273;22540;-78
2023/06/22 04:06:41;;;;;;;16.70;9.30;;;;;;;;;;106935;1260;22520;-81
2023/06/22 04:09:08;;;;;;;14.30;9.90;;;;;;;;;;106931;1276;25356;-80
2023/06/22 04:11:35;;;;;;;14.20;10.60;;;;;;;;;;106959;1276;24208;-83
2023/06/22 04:14:05;;;;;;;17.00;10.20;;;;;;;;;;106916;1276;25337;-81
2023/06/22 04:16:31;;;;;;;16.10;11.30;;;;;;;;;;106958;1276;22517;-79
2023/06/22 04:19:13;;;;;;;16.50;11.10;;;;;;;;;;106840;1276;25340;-83
2023/06/22 04:21:58;;;;;;;16.20;10.80;;;;;;;;;;106845;1276;25309;-81
2023/06/22 04:24:25;;;;;;;16.20;11.40;;;;;;;;;;106968;1276;22523;-83
2023/06/22 04:27:11;;;;;;;16.30;10.90;;;;;;;;;;106965;1259;25275;-79
2023/06/22 04:29:48;;;;;;;14.60;10.90;;;;;;;;;;106933;1276;24233;-85
2023/06/22 04:32:15;;;;;;;14.90;11.00;;;;;;;;;;106948;1276;23117;-83
2023/06/22 04:34:42;;;;;;;18.90;11.80;;;;;;;;;;107028;1271;22551;-80
2023/06/22 04:37:15;;;;;;;18.00;11.50;;;;;;;;;;110482;1259;22118;-80
2023/06/22 04:39:43;;;;;;;16.80;11.50;;;;;;;;;;110444;1276;22423;-80
2023/06/22 04:42:09;;;;;;;18.00;11.00;;;;;;;;;;110467;1276;22138;-80
2023/06/22 04:44:36;;;;;;;17.80;10.20;;;;;;;;;;110447;1276;22130;-80
2023/06/22 04:47:04;;;;;;;16.30;11.00;;;;;;;;;;110565;1257;22112;-80
2023/06/22 04:49:37;;;;;;;14.80;11.10;;;;;;;;;;110198;1277;22098;-80
2023/06/22 04:52:04;;;;;;;14.90;10.80;;;;;;;;;;110476;1273;22703;-80
2023/06/22 04:54:34;;;;;;;14.90;11.00;;;;;;;;;;110214;1277;22882;-80
2023/06/22 04:57:01;;;;;;;17.50;11.10;;;;;;;;;;110582;1259;22181;-81
2023/06/22 04:59:29;;;;;;;16.80;12.00;;;;;;;;;;110222;1277;22086;-81
2023/06/22 05:01:57;;;;;;;15.30;11.10;;;;;;;;;;110402;1277;22211;-80
2023/06/22 05:04:24;;;;;;;13.90;11.10;;;;;;;;;;110166;1277;22801;-81
2023/06/22 05:06:52;;;;;;;15.60;11.50;;;;;;;;;;110388;1260;22140;-81
2023/06/22 05:09:26;;;;;;;16.10;11.30;;;;;;;;;;110199;1277;22317;-81
2023/06/22 05:11:53;;;;;;;15.20;11.10;;;;;;;;;;110446;1265;22159;-81
2023/06/22 05:14:19;;;;;;;17.60;11.90;;;;;;;;;;110412;1277;22318;-81
2023/06/22 05:16:46;;;;;;;17.10;11.00;;;;;;;;;;110568;1257;22156;-81
2023/06/22 05:19:22;;;;;;;15.10;10.30;;;;;;;;;;110458;1277;22145;-81
2023/06/22 05:21:52;;;;;;;17.90;11.90;;;;;;;;;;110200;1277;22942;-80
2023/06/22 05:24:18;;;;;;;17.50;11.70;;;;;;;;;;110426;1277;22066;-80
2023/06/22 05:26:45;;;;;;;19.00;12.40;;;;;;;;;;110307;1257;22884;-80
2023/06/22 05:29:12;;;;;;;16.20;10.40;;;;;;;;;;110453;1277;22205;-80
2023/06/22 05:31:40;;;;;;;20.60;11.90;;;;;;;;;;110235;1277;22878;-80
2023/06/22 05:34:07;;;;;;;21.70;12.00;;;;;;;;;;110397;1277;22585;-80
2023/06/22 05:36:34;;;;;;;21.20;13.00;;;;;;;;;;110400;1259;21705;-80
2023/06/22 05:39:11;;;;;;;35.70;14.30;;;;;;;;;;110432;1277;22176;-79
2023/06/22 05:41:37;;;;;;;28.20;12.10;;;;;;;;;;110462;1277;22908;-80
2023/06/22 05:44:04;;;;;;;18.00;10.10;;;;;;;;;;110440;1277;22114;-80
2023/06/22 05:46:31;;;;;;;19.10;11.00;;;;;;;;;;110354;1254;22926;-80
2023/06/22 05:48:58;;;;;;;17.70;11.00;;;;;;;;;;110460;1277;22310;-80
2023/06/22 05:51:25;;;;;;;23.30;12.70;;;;;;;;;;110198;1273;21993;-80
2023/06/22 05:53:51;;;;;;;22.70;12.00;;;;;;;;;;110301;1277;22198;-80
2023/06/22 05:56:18;;;;;;;14.60;10.90;;;;;;;;;;110446;1270;22115;-81
2023/06/22 05:58:45;;;;;;;13.20;10.10;;;;;;;;;;110359;1257;22145;-80
2023/06/22 06:01:12;;;;;;;14.90;10.10;;;;;;;;;;110364;1277;22098;-80
2023/06/22 06:03:41;;;;;;;14.50;9.70;;;;;;;;;;110449;1277;22121;-80
2023/06/22 06:06:07;;;;;;;14.80;9.90;;;;;;;;;;110336;1277;22071;-81
2023/06/22 06:08:34;;;;;;;17.30;10.50;;;;;;;;;;110490;1259;22173;-81
2023/06/22 06:11:01;;;;;;;13.80;9.90;;;;;;;;;;110181;1277;22071;-81
2023/06/22 06:13:28;;;;;;;18.50;10.00;;;;;;;;;;110194;1277;22113;-80
2023/06/22 06:15:55;;;;;;;18.60;12.10;;;;;;;;;;110330;1277;22019;-81
2023/06/22 06:18:22;;;;;;;16.00;11.10;;;;;;;;;;110460;1256;22104;-79
2023/06/22 06:20:49;;;;;;;18.20;11.60;;;;;;;;;;110338;1277;22905;-80
2023/06/22 06:23:16;;;;;;;17.30;12.10;;;;;;;;;;110326;1277;22112;-81
2023/06/22 06:25:43;;;;;;;13.90;10.20;;;;;;;;;;110351;1264;22126;-81
2023/06/22 06:28:12;;;;;;;17.30;11.30;;;;;;;;;;110457;1261;22131;-80
2023/06/22 06:30:42;;;;;;;16.50;11.30;;;;;;;;;;110306;1277;22847;-81
2023/06/22 06:33:09;;;;;;;14.20;10.60;;;;;;;;;;110186;1277;22851;-81
2023/06/22 06:35:35;;;;;;;15.20;10.50;;;;;;;;;;110428;1277;22875;-80
2023/06/22 06:38:02;;;;;;;16.40;10.80;;;;;;;;;;110248;1262;22117;-80
2023/06/22 06:40:29;;;;;;;14.70;9.30;;;;;;;;;;110333;1277;22108;-81
2023/06/22 06:42:58;;;;;;;15.50;8.80;;;;;;;;;;110457;1277;22919;-82
2023/06/22 06:45:26;;;;;;;16.40;9.70;;;;;;;;;;110403;1278;22860;-80
2023/06/22 06:47:53;;;;;;;14.70;10.80;;;;;;;;;;110421;1256;22483;-81
2023/06/22 06:50:21;;;;;;;15.50;10.40;;;;;;;;;;110206;1278;22112;-81
2023/06/22 06:52:49;;;;;;;14.30;8.70;;;;;;;;;;110205;1278;22926;-83
2023/06/22 06:55:17;;;;;;;27.20;12.60;;;;;;;;;;110388;1278;22348;-80
2023/06/22 06:57:47;;;;;;;15.60;9.10;;;;;;;;;;110259;1256;23094;-81
2023/06/22 07:00:15;;;;;;;16.00;10.10;;;;;;;;;;110293;1278;22093;-80
2023/06/22 07:02:43;;;;;;;14.10;9.60;;;;;;;;;;110218;1278;22137;-80
2023/06/22 07:05:11;;;;;;;15.80;10.50;;;;;;;;;;110206;1278;22106;-81
2023/06/22 07:07:37;;;;;;;21.60;9.60;;;;;;;;;;110164;1276;22182;-80
2023/06/22 07:17:09;;;;;;;11.00;7.40;;;;;;;;;;110022;1283;22882;-81
2023/06/22 07:19:42;;;;;;;13.20;8.10;;;;;;;;;;110066;1262;22160;-80
2023/06/22 07:22:11;;;;;;;9.80;6.90;;;;;;;;;;109913;1283;22226;-81
2023/06/22 07:24:41;;;;;;;12.90;7.70;;;;;;;;;;109994;1283;22911;-82
2023/06/22 07:27:12;;;;;;;11.70;8.20;;;;;;;;;;109978;1283;22147;-82
2023/06/22 07:29:40;;;;;;;11.50;8.50;;;;;;;;;;110028;1266;22464;-81
2023/06/22 07:32:07;;;;;;;13.20;8.70;;;;;;;;;;109935;1283;22889;-81
2023/06/22 07:34:43;;;;;;;14.20;8.80;;;;;;;;;;109985;1278;22223;-81
2023/06/22 07:37:10;;;;;;;11.70;8.20;;;;;;;;;;109966;1283;22153;-82
2023/06/22 07:39:37;;;;;;;15.10;8.50;;;;;;;;;;109993;1265;22625;-82
2023/06/22 07:42:04;;;;;;;13.50;8.50;;;;;;;;;;109984;1283;22861;-82
2023/06/22 07:44:50;;;;;;;12.50;8.40;;;;;;;;;;109966;1284;22176;-83
2023/06/22 07:47:28;;;;;;;13.10;8.50;;;;;;;;;;109948;1283;22188;-82
2023/06/22 07:49:58;;;;;;;16.10;9.00;;;;;;;;;;109972;1264;22264;-81
2023/06/22 07:52:25;;;;;;;11.80;8.60;;;;;;;;;;110096;1280;22873;-80
2023/06/22 07:55:09;;;;;;;13.00;8.70;;;;;;;;;;110207;1272;22132;-82
2023/06/22 07:57:36;;;;;;;12.80;8.80;;;;;;;;;;110056;1280;22223;-82
2023/06/22 08:00:11;;;;;;;11.50;8.80;;;;;;;;;;110307;1257;22254;-81
2023/06/22 08:02:42;;;;;;;13.10;8.50;;;;;;;;;;110206;1279;22109;-81
2023/06/22 08:05:09;;;;;;;11.30;8.30;;;;;;;;;;110222;1279;22840;-79
2023/06/22 08:07:39;;;;;;;11.60;8.20;;;;;;;;;;110152;1279;22152;-79
2023/06/22 08:10:09;;;;;;;10.50;8.60;;;;;;;;;;110276;1257;22204;-80
2023/06/22 08:12:39;;;;;;;12.90;8.30;;;;;;;;;;110166;1280;22313;-79
2023/06/22 08:15:07;;;;;;;14.20;8.40;;;;;;;;;;110166;1280;22331;-80
2023/06/22 08:17:34;;;;;;;11.10;8.50;;;;;;;;;;110187;1280;22123;-80
2023/06/22 08:20:13;;;;;;;13.80;8.30;;;;;;;;;;110161;1263;22146;-79
2023/06/22 08:22:43;;;;;;;12.70;9.00;;;;;;;;;;110170;1275;22128;-80
2023/06/22 08:25:13;;;;;;;15.00;9.00;;;;;;;;;;110205;1279;22582;-82
2023/06/22 08:27:40;;;;;;;13.50;9.80;;;;;;;;;;110143;1279;22227;-82
2023/06/22 08:30:07;;;;;;;12.50;8.80;;;;;;;;;;110162;1262;22134;-80
2023/06/22 08:32:34;;;;;;;14.00;9.60;;;;;;;;;;110119;1279;22120;-80
2023/06/22 08:35:01;;;;;;;11.80;9.30;;;;;;;;;;110178;1276;22170;-80
2023/06/22 08:37:31;;;;;;;12.40;8.90;;;;;;;;;;110221;1280;22241;-81
2023/06/22 08:39:59;;;;;;;13.50;9.30;;;;;;;;;;110148;1256;22828;-81
2023/06/22 08:42:29;;;;;;;11.80;8.90;;;;;;;;;;110101;1279;22118;-80
2023/06/22 08:44:55;;;;;;;12.60;9.40;;;;;;;;;;110127;1280;22147;-81
2023/06/22 08:47:22;;;;;;;12.70;9.40;;;;;;;;;;110148;1280;22122;-83
2023/06/22 08:49:52;;;;;;;12.50;9.70;;;;;;;;;;110053;1270;23189;-81
2023/06/22 08:52:19;;;;;;;12.20;8.90;;;;;;;;;;109964;1280;22187;-80
2023/06/22 08:54:50;;;;;;;12.50;9.00;;;;;;;;;;110140;1280;22161;-80
2023/06/22 08:57:20;;;;;;;13.00;8.30;;;;;;;;;;110045;1280;22854;-80
2023/06/22 08:59:47;;;;;;;11.10;8.60;;;;;;;;;;110091;1280;22761;-82
2023/06/22 09:02:14;;;;;;;13.70;8.50;;;;;;;;;;110440;1260;22898;-80
2023/06/22 09:04:41;;;;;;;11.20;8.40;;;;;;;;;;110025;1280;22108;-81
2023/06/22 09:07:08;;;;;;;12.40;9.40;;;;;;;;;;110076;1280;22073;-80
2023/06/22 09:09:35;;;;;;;11.90;9.60;;;;;;;;;;110178;1280;22149;-82
2023/06/22 09:12:02;;;;;;;11.70;9.10;;;;;;;;;;110360;1259;22325;-81
2023/06/22 09:14:32;;;;;;;11.30;8.70;;;;;;;;;;110183;1280;22082;-81
2023/06/22 09:17:02;;;;;;;11.20;8.70;;;;;;;;;;110170;1280;22115;-81
2023/06/22 09:19:32;;;;;;;13.40;10.10;;;;;;;;;;110136;1280;21976;-80
2023/06/22 09:22:03;;;;;;;13.80;9.50;;;;;;;;;;110325;1263;22237;-78
2023/06/22 09:24:33;;;;;;;13.10;8.90;;;;;;;;;;110160;1280;22097;-80
2023/06/22 09:27:01;;;;;;;15.30;10.00;;;;;;;;;;110162;1280;22449;-81
2023/06/22 09:29:28;;;;;;;16.00;9.40;;;;;;;;;;110057;1280;22834;-80
2023/06/22 09:31:55;;;;;;;14.00;9.10;;;;;;;;;;110154;1260;22062;-80
2023/06/22 09:34:23;;;;;;;12.00;9.20;;;;;;;;;;110154;1280;22140;-81
2023/06/22 09:36:51;;;;;;;12.40;9.00;;;;;;;;;;110162;1280;22107;-82
2023/06/22 09:39:19;;;;;;;13.20;8.70;;;;;;;;;;110170;1280;22864;-81
2023/06/22 09:41:45;;;;;;;12.30;9.50;;;;;;;;;;110229;1260;22781;-81
2023/06/22 09:44:12;;;;;;;13.30;8.40;;;;;;;;;;110135;1280;22317;-81
2023/06/22 09:46:40;;;;;;;12.80;7.80;;;;;;;;;;110056;1280;22124;-80
2023/06/22 09:49:14;;;;;;;11.30;7.60;;;;;;;;;;110124;1280;22078;-80
2023/06/22 09:51:43;;;;;;;10.90;7.70;;;;;;;;;;110138;1262;22109;-81
2023/06/22 09:54:14;;;;;;;10.30;8.00;;;;;;;;;;110055;1278;22332;-81
2023/06/22 09:56:45;;;;;;;12.80;8.30;;;;;;;;;;110088;1279;22588;-82
2023/06/22 09:59:13;;;;;;;12.70;8.60;;;;;;;;;;110102;1280;22164;-82
2023/06/22 10:01:40;;;;;;;12.00;8.80;;;;;;;;;;110052;1257;22191;-82
2023/06/22 10:04:08;;;;;;;11.70;8.50;;;;;;;;;;110137;1280;21989;-82
2023/06/22 10:06:35;;;;;;;12.90;8.80;;;;;;;;;;110090;1280;22433;-82
2023/06/22 10:09:06;;;;;;;12.90;8.70;;;;;;;;;;110089;1275;22129;-82
2023/06/22 10:11:34;;;;;;;11.30;9.70;;;;;;;;;;110036;1258;22330;-82
2023/06/22 10:14:03;;;;;;;12.90;9.80;;;;;;;;;;110020;1280;22160;-82
2023/06/22 10:16:35;;;;;;;11.30;9.20;;;;;;;;;;110087;1280;22117;-82
2023/06/22 10:19:03;;;;;;;12.80;9.30;;;;;;;;;;110082;1280;22107;-83
2023/06/22 10:21:30;;;;;;;12.50;9.30;;;;;;;;;;110065;1280;22081;-83
2023/06/22 10:23:59;;;;;;;12.60;9.50;;;;;;;;;;110489;1262;22175;-82
2023/06/22 10:26:28;;;;;;;12.60;9.50;;;;;;;;;;110006;1280;22127;-82
2023/06/22 10:28:56;;;;;;;13.50;10.30;;;;;;;;;;110089;1280;22104;-81
2023/06/22 10:31:23;;;;;;;11.90;9.50;;;;;;;;;;110013;1280;22181;-82
2023/06/22 10:33:51;;;;;;;10.90;8.90;;;;;;;;;;110326;1263;23184;-81
2023/06/22 10:36:19;;;;;;;12.50;9.50;;;;;;;;;;110137;1276;22159;-82
2023/06/22 10:38:47;;;;;;;11.50;8.50;;;;;;;;;;110114;1280;22471;-81
2023/06/22 10:41:15;;;;;;;11.70;9.20;;;;;;;;;;110078;1280;22129;-82
2023/06/22 10:43:44;;;;;;;11.50;8.90;;;;;;;;;;110162;1265;22755;-82
2023/06/22 10:46:13;;;;;;;13.40;9.50;;;;;;;;;;110085;1281;22116;-80
2023/06/22 10:48:42;;;;;;;12.90;9.80;;;;;;;;;;110085;1281;22861;-81
2023/06/22 10:51:11;;;;;;;13.90;9.80;;;;;;;;;;110030;1281;22292;-80
2023/06/22 10:53:40;;;;;;;12.80;9.80;;;;;;;;;;110138;1262;22031;-80
2023/06/22 10:56:10;;;;;;;12.90;9.90;;;;;;;;;;110073;1278;22000;-80
2023/06/22 10:58:39;;;;;;;13.90;10.50;;;;;;;;;;110031;1281;22127;-80
2023/06/22 11:01:12;;;;;;;12.60;9.90;;;;;;;;;;110050;1281;22105;-80
2023/06/22 11:03:42;;;;;;;12.90;9.20;;;;;;;;;;110105;1263;22076;-79
2023/06/22 11:06:11;;;;;;;12.40;10.40;;;;;;;;;;110049;1281;22193;-79
2023/06/22 11:08:40;;;;;;;13.80;10.30;;;;;;;;;;110052;1281;22144;-81
2023/06/22 11:11:11;;;;;;;13.60;10.80;;;;;;;;;;110029;1281;22378;-81
2023/06/22 11:13:40;;;;;;;12.50;10.40;;;;;;;;;;109989;1261;22073;-79
2023/06/22 11:16:10;;;;;;;11.80;10.10;;;;;;;;;;110074;1275;22824;-79
2023/06/22 11:18:39;;;;;;;13.50;8.80;;;;;;;;;;109991;1281;22001;-79
2023/06/22 11:21:08;;;;;;;14.00;9.00;;;;;;;;;;110107;1281;22901;-82
2023/06/22 11:23:38;;;;;;;12.30;9.80;;;;;;;;;;110051;1265;22141;-80
2023/06/22 11:26:07;;;;;;;13.30;10.10;;;;;;;;;;110101;1281;22260;-80
2023/06/22 11:28:37;;;;;;;13.90;9.40;;;;;;;;;;110101;1281;22119;-80
2023/06/22 11:31:07;;;;;;;13.10;9.80;;;;;;;;;;110014;1281;22113;-81
2023/06/22 11:33:36;;;;;;;14.60;9.40;;;;;;;;;;110073;1262;22811;-80
2023/06/22 11:36:09;;;;;;;13.20;9.90;;;;;;;;;;110062;1281;22243;-81
2023/06/22 11:38:39;;;;;;;14.70;9.20;;;;;;;;;;110104;1281;22956;-81
2023/06/22 11:41:09;;;;;;;12.10;9.30;;;;;;;;;;110065;1281;22115;-84
2023/06/22 11:49:12;;;;;;;15.00;9.20;;;;;;;;;;103871;1292;547799;-84
2023/06/22 11:51:38;;;;;;;12.90;8.60;;;;;;;;;;106354;1284;23135;-89
2023/06/22 11:54:07;;;;;;;12.20;8.30;;;;;;;;;;106657;1279;22538;-84
2023/06/22 11:56:35;;;;;;;12.40;7.80;;;;;;;;;;106801;1279;22904;-86
2023/06/22 11:59:01;;;;;;;12.20;8.90;;;;;;;;;;106902;1273;22681;-81
2023/06/22 12:01:27;;;;;;;11.40;8.10;;;;;;;;;;104158;1278;3347740;-86
2023/06/22 12:03:53;;;;;;;11.30;8.20;;;;;;;;;;106834;1278;23890;-87
2023/06/22 12:06:22;;;;;;;12.60;8.50;;;;;;;;;;106853;1278;25268;-81
2023/06/22 12:08:48;;;;;;;11.30;8.50;;;;;;;;;;106941;1259;24204;-86
2023/06/22 12:11:14;;;;;;;11.60;8.60;;;;;;;;;;106907;1277;22602;-83
2023/06/22 12:13:43;;;;;;;11.40;8.60;;;;;;;;;;106968;1277;22525;-81
2023/06/22 12:16:12;;;;;;;10.80;8.50;;;;;;;;;;106957;1277;25334;-85
2023/06/22 12:18:38;;;;;;;12.50;8.30;;;;;;;;;;107071;1260;25799;-79
2023/06/22 12:21:04;;;;;;;11.00;8.20;;;;;;;;;;106755;1278;22766;-86
2023/06/22 12:23:33;;;;;;;11.90;7.70;;;;;;;;;;106735;1278;24192;-82
2023/06/22 12:25:59;;;;;;;12.00;8.80;;;;;;;;;;106825;1278;22472;-86
2023/06/22 12:28:29;;;;;;;11.10;8.60;;;;;;;;;;107042;1254;22524;-88
2023/06/22 12:31:00;;;;;;;13.20;9.60;;;;;;;;;;106888;1277;22568;-84
2023/06/22 12:33:30;;;;;;;13.60;9.60;;;;;;;;;;107020;1277;22527;-84
2023/06/22 12:35:56;;;;;;;12.70;8.80;;;;;;;;;;106916;1277;24089;-79
2023/06/22 12:38:25;;;;;;;11.30;8.90;;;;;;;;;;106887;1277;25246;-79
2023/06/22 12:40:51;;;;;;;10.70;8.40;;;;;;;;;;106777;1261;24350;-87
2023/06/22 12:43:20;;;;;;;12.30;8.60;;;;;;;;;;106754;1278;22549;-83
2023/06/22 12:45:46;;;;;;;12.50;8.30;;;;;;;;;;106873;1279;22526;-88
2023/06/22 12:48:14;;;;;;;12.40;7.70;;;;;;;;;;106846;1279;24256;-83
2023/06/22 12:50:44;;;;;;;12.70;8.60;;;;;;;;;;107142;1273;22486;-90
2023/06/22 12:53:20;;;;;;;12.40;8.40;;;;;;;;;;106943;1276;22630;-83
2023/06/22 12:55:48;;;;;;;11.70;8.40;;;;;;;;;;106920;1276;22526;-83
2023/06/22 12:58:14;;;;;;;12.80;8.10;;;;;;;;;;106934;1277;22540;-89
2023/06/22 13:00:40;;;;;;;13.80;8.50;;;;;;;;;;106598;1279;22537;-89
2023/06/22 13:03:10;;;;;;;11.00;8.60;;;;;;;;;;106669;1272;22545;-87
2023/06/22 13:05:38;;;;;;;13.00;8.40;;;;;;;;;;106906;1272;25341;-82
2023/06/22 13:08:04;;;;;;;12.90;8.50;;;;;;;;;;106832;1276;24366;-85
2023/06/22 13:10:30;;;;;;;13.10;8.80;;;;;;;;;;107081;1257;22520;-83
2023/06/22 13:13:00;;;;;;;11.70;8.20;;;;;;;;;;107207;1271;25341;-83
2023/06/22 13:15:28;;;;;;;12.80;8.40;;;;;;;;;;107127;1274;24219;-83
2023/06/22 13:17:57;;;;;;;10.50;7.90;;;;;;;;;;107202;1274;25465;-85
2023/06/22 13:20:28;;;;;;;11.00;8.30;;;;;;;;;;106988;1259;25402;-85
2023/06/22 13:22:58;;;;;;;11.30;8.20;;;;;;;;;;107048;1274;24257;-85
2023/06/22 13:25:26;;;;;;;13.90;8.00;;;;;;;;;;107045;1272;24267;-89
2023/06/22 13:27:55;;;;;;;9.80;7.90;;;;;;;;;;107003;1267;22527;-81
2023/06/22 13:30:25;;;;;;;10.60;7.80;;;;;;;;;;106738;1258;22520;-83
2023/06/22 13:32:54;;;;;;;10.90;8.30;;;;;;;;;;106575;1271;25162;-81
2023/06/22 13:35:21;;;;;;;10.60;8.00;;;;;;;;;;106691;1268;24362;-82
2023/06/22 13:37:47;;;;;;;10.00;8.10;;;;;;;;;;106897;1275;22686;-82
2023/06/22 13:40:14;;;;;;;12.40;8.20;;;;;;;;;;107134;1257;22634;-87
2023/06/22 13:42:40;;;;;;;11.80;7.90;;;;;;;;;;107152;1274;24362;-87
2023/06/22 13:45:07;;;;;;;10.60;8.40;;;;;;;;;;107179;1274;22686;-90
2023/06/22 13:47:36;;;;;;;11.70;8.30;;;;;;;;;;107117;1274;24371;-83
2023/06/22 13:50:05;;;;;;;13.00;8.00;;;;;;;;;;107216;1273;22540;-82
2023/06/22 13:52:36;;;;;;;12.40;8.50;;;;;;;;;;107224;1273;24360;-81
2023/06/22 13:55:02;;;;;;;10.70;8.20;;;;;;;;;;106998;1274;25356;-87
2023/06/22 13:57:28;;;;;;;10.40;8.20;;;;;;;;;;107215;1274;24297;-86
2023/06/22 13:59:54;;;;;;;9.70;7.80;;;;;;;;;;107034;1274;25242;-86
2023/06/22 14:02:23;;;;;;;11.30;8.60;;;;;;;;;;107192;1256;22529;-90
2023/06/22 14:04:49;;;;;;;12.70;8.70;;;;;;;;;;106943;1274;24195;-88
2023/06/22 14:07:31;;;;;;;;;;;;;;;;;;;;;
2023/06/22 14:09:58;;;;;;;12.50;8.40;;;;;;;;;;107058;1274;22926;-85
2023/06/22 14:12:44;;;;;;;16.20;7.30;;;;;;;;;;107162;1258;22530;-87
2023/06/22 14:15:24;;;;;;;11.40;8.20;;;;;;;;;;107078;1266;23230;-83
2023/06/22 14:17:54;;;;;;;11.00;8.30;;;;;;;;;;107100;1266;22582;-88
2023/06/22 14:20:20;;;;;;;11.20;8.20;;;;;;;;;;107216;1269;23902;-85
2023/06/22 14:22:47;;;;;;;10.10;7.90;;;;;;;;;;106949;1259;22567;-85
2023/06/22 14:25:14;;;;;;;10.80;7.50;;;;;;;;;;107029;1272;22536;-87
2023/06/22 14:27:40;;;;;;;10.20;7.30;;;;;;;;;;107009;1269;25594;-84
2023/06/22 14:30:21;;;;;;;16.00;9.40;;;;;;;;;;106999;1272;25339;-83
2023/06/22 14:32:48;;;;;;;12.40;8.40;;;;;;;;;;106978;1259;25341;-84
2023/06/22 14:35:14;;;;;;;14.20;7.90;;;;;;;;;;107111;1270;25097;-84
2023/06/22 14:37:42;;;;;;;10.90;7.70;;;;;;;;;;107140;1272;22536;-90
2023/06/22 14:40:17;;;;;;;10.40;7.30;;;;;;;;;;107195;1274;25414;-83
2023/06/22 14:42:47;;;;;;;11.50;7.30;;;;;;;;;;107129;1257;22524;-83